This is the latest recevied weather packets stored in our database for station/object N9BSW. If no packets are shown the sender has not sent any weather packets the latest 10 day(s).
| Time | Temp. | Humidity | Pressure | Rain* | Wind** | Luminosity | Snow |
|---|---|---|---|---|---|---|---|
| 1777504808 | 15° C | 54% | 1013.1 hPa | 0 mm | - | 101 W/m² | - |
| 1777504505 | 15.56° C | 55% | 1013.2 hPa | 0 mm | - | 94 W/m² | - |
| 1777504200 | 15.56° C | 55% | 1013 hPa | 0 mm | - | 107 W/m² | - |
| 1777503896 | 15.56° C | 54% | 1013.1 hPa | 0 mm | - | 93 W/m² | - |
| 1777503592 | 15.56° C | 52% | 1013 hPa | 0 mm | - | 112 W/m² | - |
| 1777503290 | 15.56° C | 54% | 1012.9 hPa | 0 mm | - | 158 W/m² | - |
| 1777502986 | 15.56° C | 53% | 1012.9 hPa | 0 mm | - | 88 W/m² | - |
| 1777502684 | 15.56° C | 54% | 1013 hPa | 0 mm | - | 103 W/m² | - |
| 1777502380 | 15.56° C | 54% | 1013 hPa | 0 mm | - | 323 W/m² | - |
| 1777502077 | 16.11° C | 55% | 1012.7 hPa | 0 mm | - | 98 W/m² | - |
| 1777501774 | 16.11° C | 52% | 1012.8 hPa | 0 mm | - | 128 W/m² | - |
| 1777501472 | 16.11° C | 53% | 1012.5 hPa | 0 mm | - | 151 W/m² | - |
| 1777501168 | 16.67° C | 51% | 1012.6 hPa | 0 mm | - | 163 W/m² | - |
| 1777500867 | 16.67° C | 49% | 1012.4 hPa | 0 mm | - | 307 W/m² | - |
| 1777500563 | 16.67° C | 51% | 1012.5 hPa | 0 mm | - | 111 W/m² | - |
| 1777500260 | 17.22° C | 50% | 1012.4 hPa | 0 mm | - | 100 W/m² | - |
| 1777499956 | 16.67° C | 50% | 1012.4 hPa | 0 mm | - | 494 W/m² | - |
| 1777499653 | 17.78° C | 49% | 1012.3 hPa | 0 mm | - | 137 W/m² | - |
| 1777499350 | 17.78° C | 49% | 1012.4 hPa | 0 mm | - | 291 W/m² | - |
| 1777499048 | 17.78° C | 47% | 1012.5 hPa | 0 mm | - | 539 W/m² | - |
| 1777498744 | 17.78° C | 50% | 1012.4 hPa | 0 mm | - | 264 W/m² | - |
| 1777498441 | 17.22° C | 51% | 1012.2 hPa | 0 mm | - | 568 W/m² | - |
| 1777498138 | 18.89° C | 47% | 1012.2 hPa | 0 mm | - | 137 W/m² | - |
| 1777497835 | 18.89° C | 49% | 1012.4 hPa | 0 mm | - | 561 W/m² | - |
| 1777497531 | 17.78° C | 50% | 1012.4 hPa | 0 mm | - | 416 W/m² | - |
* Rain latest hour (hover to see other rain measurements)
** Current wind speed in m/s (hover to see current wind gust speed)